L'Hospitalet de Llobregat, Spain
Current Conditions -  °F | °C
As of 11:30 AM on Saturday 20 Dec 2014 (Local Time) from LEBL Reporting Station
Few Clouds Few Clouds  
Wind Chill: 55°   Ceiling: Unl
Heat Index: 55°   Visibility: 6mi
Dew Point: 46°   Wind: 16mph
Humidity: 72%   Direction: 320°NW
Pressure: 30.45"   Gusts: NA
Location:  41.36°N, 2.1°E
Report Text: LEBL 201030Z 32014KT 280V360 9999 FEW020 13/08 Q1031 NOSIG
Loading
Personal Weather Stations






























Interactive Weather Map New forecast layout! Learn more

10-Day Weather Forecast

Advertisements
Track Severe Weather on mobile